Time;durP1;ratioP1;P1;durP2;ratioP2;P2;SDS_P1;SDS_P2;PMS_P1;PMS_P2;Temp;Humidity;BMP_temperature;BMP_pressure;BME280_temperature;BME280_humidity;BME280_pressure;Samples;Min_cycle;Max_cycle;Signal;HPM_P1;HPM_P2
2022/11/26 00:02:14;;;;;;;9.48;5.35;;;;;;;6.30;58.82;101452.66;4988546;28;20026;-86
2022/11/26 00:04:42;;;;;;;8.77;5.22;;;;;;;6.29;58.68;101437.59;4985036;28;20040;-86
2022/11/26 00:07:12;;;;;;;10.27;6.15;;;;;;;6.24;58.15;101429.06;4994014;28;20112;-86
2022/11/26 00:09:38;;;;;;;17.70;9.43;;;;;;;6.12;58.50;101421.00;4975595;28;20116;-87
2022/11/26 00:12:14;;;;;;;10.38;6.18;;;;;;;6.12;58.38;101431.69;5004797;28;20494;-87
2022/11/26 00:14:40;;;;;;;;;;;;;;;6.28;58.77;101457.25;4982695;28;20491;-87
2022/11/26 00:17:06;;;;;;;;;;;;;;;6.37;58.75;101467.25;4995878;28;19917;-86
2022/11/26 00:19:33;;;;;;;8.90;5.25;;;;;;;6.30;58.31;101455.34;5024797;28;19913;-88
2022/11/26 00:22:00;;;;;;;10.98;6.20;;;;;;;6.18;58.60;101432.19;5014111;28;20180;-89
2022/11/26 00:24:26;;;;;;;11.63;6.22;;;;;;;6.40;58.64;101451.00;4998042;28;21323;-88
2022/11/26 00:26:53;;;;;;;;;;;;;;;6.55;58.36;101465.91;4986012;28;20117;-87
2022/11/26 00:29:18;;;;;;;9.05;5.20;;;;;;;6.34;57.67;101435.41;4995702;28;19913;-87
2022/11/26 00:31:46;;;;;;;10.98;6.72;;;;;;;6.54;57.52;101464.19;4998310;28;20446;-85
2022/11/26 00:34:12;;;;;;;10.80;6.40;;;;;;;6.49;57.87;101466.34;4995908;28;20029;-86
2022/11/26 00:36:38;;;;;;;9.60;5.70;;;;;;;6.51;57.16;101459.06;5013149;28;20116;-89
2022/11/26 00:39:19;;;;;;;13.32;7.20;;;;;;;6.46;57.33;101455.91;5010658;28;20111;-86
2022/11/26 00:41:49;;;;;;;8.50;5.18;;;;;;;6.63;56.30;101480.50;4993018;28;20064;-87
2022/11/26 00:44:18;;;;;;;11.70;6.47;;;;;;;6.31;56.64;101443.69;4993454;28;20037;-87
2022/11/26 00:46:46;;;;;;;10.13;6.10;;;;;;;6.53;56.67;101485.66;5018432;28;20045;-88
2022/11/26 00:49:12;;;;;;;10.20;6.03;;;;;;;6.39;56.36;101464.47;4965974;28;20366;-86
2022/11/26 00:51:37;;;;;;;10.80;5.90;;;;;;;6.24;57.16;101469.97;4996078;28;20041;-87
2022/11/26 00:54:03;;;;;;;10.63;5.82;;;;;;;6.45;57.12;101485.38;5021086;28;20375;-86
2022/11/26 00:56:29;;;;;;;9.93;5.90;;;;;;;6.43;57.30;101481.97;4996398;28;20041;-89
2022/11/26 00:58:55;;;;;;;10.48;6.43;;;;;;;6.28;58.41;101459.94;4997122;28;20060;-87
2022/11/26 01:01:23;;;;;;;11.38;6.57;;;;;;;6.60;58.72;101491.38;5019322;28;20037;-86
2022/11/26 01:03:50;;;;;;;11.40;6.70;;;;;;;6.48;59.18;101494.00;5020066;28;20030;-86
2022/11/26 01:06:19;;;;;;;14.57;6.88;;;;;;;6.57;59.11;101502.31;5011508;28;20439;-87
2022/11/26 01:08:48;;;;;;;13.52;7.25;;;;;;;6.20;59.95;101481.84;4996614;28;20415;-86
2022/11/26 01:11:16;;;;;;;12.73;7.53;;;;;;;6.18;59.88;101489.13;4997655;28;20052;-88
2022/11/26 01:13:43;;;;;;;11.27;6.18;;;;;;;6.05;59.82;101467.81;4986305;28;20033;-87
2022/11/26 01:16:30;;;;;;;11.15;6.40;;;;;;;6.35;59.63;101485.22;5016681;28;20442;-87
2022/11/26 01:18:57;;;;;;;11.70;6.47;;;;;;;6.55;59.21;101502.41;5000651;28;20504;-87
2022/11/26 01:21:27;;;;;;;9.77;6.47;;;;;;;6.58;59.19;101512.03;4997203;28;20125;-87
2022/11/26 01:23:53;;;;;;;13.75;7.82;;;;;;;6.42;59.29;101494.47;5003491;28;20057;-88
2022/11/26 01:26:21;;;;;;;11.13;6.32;;;;;;;6.50;58.55;101494.75;4997773;28;20030;-89
2022/11/26 01:28:50;;;;;;;10.45;6.07;;;;;;;6.57;58.36;101505.84;5010980;28;20029;-86
2022/11/26 01:31:23;;;;;;;10.85;6.30;;;;;;;6.50;58.63;101478.72;5022929;28;20045;-87
2022/11/26 01:33:51;;;;;;;11.18;6.72;;;;;;;6.69;58.50;101512.09;5002140;28;20038;-86
2022/11/26 01:36:33;;;;;;;11.90;6.28;;;;;;;6.62;58.79;101513.50;4999309;28;20053;-87
2022/11/26 01:39:09;;;;;;;11.02;6.47;;;;;;;6.41;59.37;101498.09;5011556;28;20030;-89
2022/11/26 01:41:40;;;;;;;14.70;7.00;;;;;;;6.60;59.12;101521.63;5003014;28;20146;-88
2022/11/26 01:44:06;;;;;;;12.10;7.63;;;;;;;6.69;59.37;101520.09;5015629;28;20088;-91
2022/11/26 01:46:34;;;;;;;13.20;6.57;;;;;;;6.58;59.23;101512.03;4994781;28;20045;-89
2022/11/26 01:49:20;;;;;;;12.07;7.00;;;;;;;6.59;59.05;101522.59;5017560;28;20026;-90
2022/11/26 01:51:48;;;;;;;11.95;6.40;;;;;;;6.66;58.89;101529.19;5002005;28;20546;-89
2022/11/26 01:54:14;;;;;;;11.38;6.50;;;;;;;6.59;58.64;101545.81;5000354;28;20132;-89
2022/11/26 01:57:22;;;;;;;10.73;6.10;;;;;;;6.62;58.57;101534.88;5002630;28;20018;-88
2022/11/26 01:59:56;;;;;;;10.63;5.95;;;;;;;6.22;59.17;101513.78;5005779;28;20060;-90
2022/11/26 02:02:22;;;;;;;11.23;6.43;;;;;;;6.07;59.09;101497.91;4998660;28;20072;-90
2022/11/26 02:04:56;;;;;;;10.95;6.30;;;;;;;5.87;59.43;101485.13;4993547;28;20419;-87
2022/11/26 02:07:22;;;;;;;11.48;6.45;;;;;;;6.10;58.77;101513.69;4991833;28;20115;-89
2022/11/26 02:09:49;;;;;;;10.85;6.60;;;;;;;6.21;58.84;101526.28;4997459;28;20199;-89
2022/11/26 02:12:15;;;;;;;11.55;6.40;;;;;;;6.28;58.11;101510.69;4991365;28;20038;-89
2022/11/26 02:14:42;;;;;;;10.48;6.38;;;;;;;6.17;58.17;101502.59;5020732;28;20050;-89
2022/11/26 02:17:20;;;;;;;10.68;6.20;;;;;;;6.31;58.01;101527.31;4995448;28;20482;-91
2022/11/26 02:20:04;;;;;;;14.50;6.88;;;;;;;6.42;57.97;101552.41;5000893;28;20046;-91
2022/11/26 02:22:44;;;;;;;10.70;6.20;;;;;;;6.28;58.07;101553.41;5016471;28;20037;-90
2022/11/26 02:25:15;;;;;;;10.40;6.10;;;;;;;6.29;58.01;101560.44;5016896;28;20044;-89
2022/11/26 02:27:58;;;;;;;11.60;6.28;;;;;;;6.15;58.12;101560.59;5017956;28;20436;-90
2022/11/26 02:30:24;;;;;;;11.77;6.22;;;;;;;5.87;58.43;101547.34;5003294;28;20099;-88
2022/11/26 02:33:11;;;;;;;10.10;5.70;;;;;;;6.16;58.27;101575.63;4988093;28;20122;-89
2022/11/26 02:35:38;;;;;;;11.23;6.40;;;;;;;5.96;58.41;101537.88;5024724;28;20121;-91
2022/11/26 02:38:24;;;;;;;11.63;6.45;;;;;;;6.20;57.58;101561.09;5015998;28;20104;-89
2022/11/26 02:40:50;;;;;;;11.70;6.93;;;;;;;5.90;58.63;101563.16;4992342;28;20037;-90
2022/11/26 02:43:17;;;;;;;11.40;6.78;;;;;;;5.79;58.74;101530.19;4999291;28;20049;-86
2022/11/26 02:45:45;;;;;;;13.88;6.95;;;;;;;6.02;58.22;101549.94;5013309;28;20048;-88
2022/11/26 02:48:29;;;;;;;9.60;6.15;;;;;;;5.55;58.67;101533.63;4985575;28;20036;-88
2022/11/26 02:51:17;;;;;;;11.48;6.55;;;;;;;5.76;58.56;101555.28;5014733;28;20040;-86
2022/11/26 02:53:43;;;;;;;11.40;6.43;;;;;;;5.86;58.53;101580.34;4981217;28;20140;-88
2022/11/26 02:56:11;;;;;;;12.90;6.72;;;;;;;5.73;58.29;101547.47;4988269;28;20044;-88
2022/11/26 02:58:36;;;;;;;10.95;6.30;;;;;;;5.92;58.27;101581.72;4967476;28;20037;-88
2022/11/26 03:01:27;;;;;;;12.87;6.70;;;;;;;5.82;58.48;101575.34;4999006;28;20040;-87
2022/11/26 03:03:54;;;;;;;12.70;6.38;;;;;;;5.65;58.20;101547.16;5028035;28;20269;-88
2022/11/26 03:06:19;;;;;;;;;;;;;;;5.90;58.07;101587.19;5006537;28;20048;-88
2022/11/26 03:08:45;;;;;;;11.32;6.20;;;;;;;5.86;58.12;101590.19;5035653;28;19981;-87
2022/11/26 03:11:11;;;;;;;10.60;5.95;;;;;;;5.83;57.93;101583.25;5029766;28;20477;-86
2022/11/26 03:13:37;;;;;;;10.85;6.35;;;;;;;5.86;58.15;101576.84;5002310;28;20071;-87
2022/11/26 03:16:03;;;;;;;11.63;6.27;;;;;;;5.69;58.42;101570.88;4986258;28;20033;-87
2022/11/26 03:18:30;;;;;;;13.40;6.68;;;;;;;5.72;58.22;101580.47;5013219;28;20277;-86
2022/11/26 03:20:56;;;;;;;12.15;6.50;;;;;;;5.70;58.33;101590.38;5011019;28;20043;-87
2022/11/26 03:23:23;;;;;;;11.77;6.70;;;;;;;5.44;58.83;101573.53;4988360;28;20030;-87
2022/11/26 03:25:49;;;;;;;12.68;7.22;;;;;;;5.63;58.91;101603.28;5013229;28;20459;-87
2022/11/26 03:28:14;;;;;;;12.70;6.83;;;;;;;5.81;59.00;101605.66;4994772;28;20048;-88
2022/11/26 03:30:40;;;;;;;10.17;6.07;;;;;;;5.77;58.70;101590.81;5017450;28;20382;-86
2022/11/26 03:33:05;;;;;;;11.40;6.30;;;;;;;5.51;58.98;101585.47;5003037;28;20033;-86
2022/11/26 03:35:31;;;;;;;12.60;6.20;;;;;;;5.90;58.55;101623.72;4996198;28;20052;-87
2022/11/26 03:37:56;;;;;;;13.75;6.63;;;;;;;5.81;58.64;101613.66;5013234;28;20030;-88
2022/11/26 03:40:22;;;;;;;11.52;6.15;;;;;;;5.69;59.01;101621.56;4995193;28;20053;-87
2022/11/26 03:42:49;;;;;;;11.68;6.32;;;;;;;5.74;59.03;101633.75;5019982;28;20042;-87
2022/11/26 03:45:14;;;;;;;11.23;6.10;;;;;;;5.70;58.59;101601.06;5013511;28;20528;-88
2022/11/26 03:47:40;;;;;;;11.98;6.05;;;;;;;5.87;58.68;101629.22;5021036;28;20044;-86
2022/11/26 03:50:07;;;;;;;12.52;6.18;;;;;;;5.68;58.96;101611.81;5025160;28;20120;-87
2022/11/26 03:52:33;;;;;;;10.95;6.43;;;;;;;5.61;58.67;101591.88;4979450;28;20073;-89
2022/11/26 03:55:01;;;;;;;11.40;6.50;;;;;;;5.88;58.92;101628.28;4993378;28;20046;-88
2022/11/26 03:57:27;;;;;;;12.48;6.90;;;;;;;5.65;58.92;101593.38;4993270;28;20038;-87
2022/11/26 03:59:52;;;;;;;12.55;6.60;;;;;;;5.62;58.85;101584.72;5002611;28;20041;-87
2022/11/26 04:02:18;;;;;;;15.20;6.68;;;;;;;5.68;59.01;101593.16;4989348;28;20050;-87
2022/11/26 04:04:43;;;;;;;12.98;7.20;;;;;;;5.73;58.78;101590.16;4991533;28;20034;-89
2022/11/26 04:07:10;;;;;;;10.25;6.20;;;;;;;5.88;58.57;101620.28;4992661;28;20380;-87
2022/11/26 04:09:36;;;;;;;11.35;6.15;;;;;;;5.61;58.63;101581.19;4993933;28;20045;-87
2022/11/26 04:12:04;;;;;;;13.32;6.88;;;;;;;5.70;58.69;101593.91;4992940;28;20192;-88
2022/11/26 04:14:29;;;;;;;11.27;6.80;;;;;;;5.89;58.28;101605.97;5006202;28;20100;-88
2022/11/26 04:16:55;;;;;;;12.40;6.85;;;;;;;5.99;58.53;101616.88;4993717;28;20030;-87
2022/11/26 04:19:21;;;;;;;11.27;6.45;;;;;;;5.64;58.11;101586.34;4988941;28;20072;-87
2022/11/26 04:21:46;;;;;;;12.25;6.75;;;;;;;5.72;58.58;101626.66;4996050;28;20420;-87
2022/11/26 04:24:12;;;;;;;12.93;7.15;;;;;;;5.71;58.47;101637.44;4990882;28;20132;-88
2022/11/26 04:26:38;;;;;;;12.10;6.55;;;;;;;5.71;57.83;101619.66;4995671;28;20511;-88
2022/11/26 04:29:04;;;;;;;11.45;6.45;;;;;;;5.70;58.26;101617.91;4994822;28;20491;-88
2022/11/26 04:31:29;;;;;;;12.38;6.85;;;;;;;5.64;58.27;101607.69;5002391;28;20038;-87
2022/11/26 04:33:55;;;;;;;11.67;6.07;;;;;;;5.56;58.80;101612.69;4996879;28;20112;-90
2022/11/26 04:36:22;;;;;;;11.03;6.70;;;;;;;5.76;58.54;101629.13;5004470;28;20273;-87
2022/11/26 04:38:49;;;;;;;12.40;6.82;;;;;;;5.52;58.30;101605.84;4995201;28;20289;-85
2022/11/26 04:41:14;;;;;;;11.45;6.65;;;;;;;5.64;58.64;101623.69;5018954;28;20076;-86
2022/11/26 04:43:43;;;;;;;11.10;6.38;;;;;;;5.72;58.48;101653.34;5009066;28;20046;-89
2022/11/26 04:46:10;;;;;;;14.15;6.93;;;;;;;5.60;58.09;101632.84;5000427;28;20136;-88
2022/11/26 04:48:36;;;;;;;12.23;6.63;;;;;;;5.53;58.29;101618.22;5005586;28;20037;-87
2022/11/26 04:51:03;;;;;;;12.93;7.40;;;;;;;5.50;58.29;101634.44;5009391;28;20528;-88
2022/11/26 04:53:29;;;;;;;12.20;6.65;;;;;;;5.50;58.72;101648.66;5004100;28;20042;-89
2022/11/26 04:55:56;;;;;;;14.90;7.00;;;;;;;5.68;58.62;101667.84;5011253;28;20417;-89
2022/11/26 04:58:23;;;;;;;13.40;7.10;;;;;;;5.59;58.82;101668.47;5026188;28;20087;-89
2022/11/26 05:00:49;;;;;;;11.98;6.93;;;;;;;5.59;58.32;101663.16;5006800;28;20467;-89
2022/11/26 05:03:16;;;;;;;15.98;7.07;;;;;;;5.71;58.45;101681.00;5004914;28;20051;-88
2022/11/26 05:05:53;;;;;;;15.07;8.02;;;;;;;5.63;58.92;101685.16;4998141;28;20454;-87
2022/11/26 05:08:50;;;;;;;13.48;7.10;;;;;;;5.69;58.92;101695.41;5001505;28;20053;-89
2022/11/26 05:11:15;;;;;;;12.18;6.90;;;;;;;5.46;58.38;101647.13;5001216;28;20025;-87
2022/11/26 05:13:42;;;;;;;14.05;6.78;;;;;;;5.63;59.02;101695.81;5001403;28;20789;-88
2022/11/26 05:16:09;;;;;;;13.02;6.95;;;;;;;5.64;58.85;101703.72;4990907;28;20033;-87
2022/11/26 05:18:35;;;;;;;15.35;7.25;;;;;;;5.58;59.03;101703.28;5000747;28;20488;-88
2022/11/26 05:21:00;;;;;;;14.43;7.20;;;;;;;5.47;58.72;101682.66;4997310;28;20041;-87
2022/11/26 05:23:26;;;;;;;14.82;7.60;;;;;;;5.53;58.97;101705.41;4999588;28;20034;-87
2022/11/26 05:25:52;;;;;;;13.07;6.93;;;;;;;5.45;59.24;101709.41;5003965;28;20045;-87
2022/11/26 05:28:17;;;;;;;13.85;7.38;;;;;;;5.59;58.71;101705.84;5001395;28;20057;-87
2022/11/26 05:30:44;;;;;;;12.60;7.13;;;;;;;5.58;58.70;101709.47;4974057;28;20490;-87
2022/11/26 05:33:10;;;;;;;12.60;7.15;;;;;;;5.25;59.06;101673.44;4997282;28;20312;-88
2022/11/26 05:35:36;;;;;;;14.73;7.22;;;;;;;5.08;59.75;101663.88;4994376;28;20110;-88
2022/11/26 05:38:03;;;;;;;14.57;7.38;;;;;;;5.38;59.42;101691.28;4978458;28;20042;-87
2022/11/26 05:40:29;;;;;;;13.90;7.55;;;;;;;5.37;59.73;101713.56;4997713;28;20045;-89
2022/11/26 05:42:55;;;;;;;14.52;7.90;;;;;;;5.08;59.79;101658.56;4980402;28;20149;-88
2022/11/26 05:45:24;;;;;;;14.55;7.63;;;;;;;5.17;59.78;101683.72;4996019;28;20038;-87
2022/11/26 05:47:49;;;;;;;14.10;7.25;;;;;;;5.36;59.88;101712.72;4999245;28;20046;-87
2022/11/26 05:50:15;;;;;;;15.10;8.00;;;;;;;5.38;59.67;101715.28;4985196;28;20037;-89
2022/11/26 05:52:42;;;;;;;13.68;7.60;;;;;;;5.27;59.21;101714.19;4995334;28;20750;-90
2022/11/26 05:55:08;;;;;;;15.27;7.75;;;;;;;5.33;59.58;101712.06;4999041;28;20053;-90
2022/11/26 05:57:36;;;;;;;15.27;7.97;;;;;;;5.48;59.18;101735.06;4998385;28;20073;-88
2022/11/26 06:00:10;;;;;;;15.07;8.30;;;;;;;5.49;59.02;101747.44;4998843;28;20058;-88
2022/11/26 06:02:38;;;;;;;14.68;7.85;;;;;;;5.11;58.77;101694.81;4993230;28;20104;-91
2022/11/26 06:05:06;;;;;;;14.95;7.82;;;;;;;5.42;58.53;101708.78;4978912;28;20049;-90
2022/11/26 06:07:33;;;;;;;13.88;7.55;;;;;;;5.51;57.94;101740.19;4998656;28;20117;-91
2022/11/26 06:10:01;;;;;;;15.93;7.95;;;;;;;5.54;58.32;101739.97;4997377;28;20044;-94
2022/11/26 06:12:41;;;;;;;14.30;8.05;;;;;;;5.31;58.29;101711.31;5000696;28;20056;-95
2022/11/26 06:15:39;;;;;;;15.13;8.35;;;;;;;5.36;58.13;101682.50;5005440;28;20042;-93
2022/11/26 06:18:05;;;;;;;17.42;7.60;;;;;;;5.78;57.74;101750.81;5017601;28;20065;-86
2022/11/26 06:20:31;;;;;;;15.20;8.02;;;;;;;5.90;57.23;101736.66;5005152;28;20510;-91
2022/11/26 06:22:57;;;;;;;15.43;7.65;;;;;;;5.90;56.67;101709.13;5007510;28;20096;-89
2022/11/26 06:25:24;;;;;;;18.75;8.20;;;;;;;6.17;56.27;101737.56;5002278;28;20034;-91
2022/11/26 06:27:51;;;;;;;14.07;7.53;;;;;;;6.23;56.06;101729.13;5004564;28;20061;-90
2022/11/26 06:30:17;;;;;;;13.75;7.78;;;;;;;6.34;55.54;101751.47;5005135;28;20068;-88
2022/11/26 06:32:43;;;;;;;12.98;7.50;;;;;;;6.57;54.66;101735.63;5008315;28;20057;-89
2022/11/26 06:35:09;;;;;;;15.50;7.95;;;;;;;6.50;54.44;101721.84;5014026;28;20022;-92
2022/11/26 06:37:35;;;;;;;13.73;7.53;;;;;;;6.68;54.07;101726.84;5001066;28;20057;-90
2022/11/26 06:40:03;;;;;;;16.90;7.22;;;;;;;6.83;53.62;101739.09;5009547;28;20038;-90
2022/11/26 06:42:28;;;;;;;14.40;7.38;;;;;;;7.05;52.97;101734.91;5000905;28;20049;-89
2022/11/26 06:44:54;;;;;;;12.68;7.25;;;;;;;6.90;52.19;101710.97;5001919;28;20030;-90
2022/11/26 06:47:21;;;;;;;13.88;6.80;;;;;;;7.43;51.88;101744.59;5008869;28;20037;-90
2022/11/26 06:49:47;;;;;;;13.15;7.03;;;;;;;7.54;52.02;101748.16;4995873;28;20046;-85
2022/11/26 06:52:12;;;;;;;11.68;6.53;;;;;;;7.71;50.90;101759.44;4993557;28;20108;-88
2022/11/26 06:54:41;;;;;;;12.50;6.82;;;;;;;8.15;50.10;101777.47;5003789;28;20422;-89
2022/11/26 06:57:07;;;;;;;11.45;7.45;;;;;;;8.82;48.45;101771.34;4996061;28;20038;-89
2022/11/26 06:59:33;;;;;;;12.77;7.13;;;;;;;10.48;44.59;101770.16;5024302;28;20069;-90
2022/11/26 07:01:59;;;;;;;11.93;6.80;;;;;;;11.13;42.01;101763.50;5035884;28;20091;-92
2022/11/26 07:04:24;;;;;;;;;;;;;;;10.86;42.74;101776.72;5040853;28;20050;-83
2022/11/26 07:06:50;;;;;;;11.93;7.28;;;;;;;12.35;40.04;101744.25;4990831;28;19960;-89
2022/11/26 07:09:16;;;;;;;;;;;;;;;13.61;37.93;101775.19;4996412;28;20044;-88
2022/11/26 07:11:45;;;;;;;14.32;7.50;;;;;;;14.95;35.46;101768.53;5015259;28;19925;-88
2022/11/26 07:14:11;;;;;;;14.60;7.97;;;;;;;16.13;33.67;101767.59;5017392;28;20517;-87
2022/11/26 07:16:39;;;;;;;14.35;8.68;;;;;;;17.00;31.08;101771.34;5005990;28;20065;-91
2022/11/26 07:19:05;;;;;;;11.20;7.70;;;;;;;17.57;30.45;101774.78;4972025;28;20424;-90
2022/11/26 07:21:32;;;;;;;13.43;9.32;;;;;;;18.41;28.58;101775.63;5000410;28;20041;-89
2022/11/26 07:23:57;;;;;;;;;;;;;;;19.43;27.32;101780.38;5001646;28;20029;-88
2022/11/26 07:26:25;;;;;;;10.70;7.75;;;;;;;20.03;26.49;101749.09;5016769;28;20050;-89
2022/11/26 07:28:51;;;;;;;12.98;8.15;;;;;;;20.86;25.35;101773.00;5014117;28;20122;-89
2022/11/26 07:31:21;;;;;;;11.70;7.88;;;;;;;21.41;24.54;101784.84;5023184;28;20465;-90
2022/11/26 07:33:48;;;;;;;15.20;7.68;;;;;;;20.74;24.54;101761.81;4978465;28;20041;-90
2022/11/26 07:36:23;;;;;;;11.15;7.95;;;;;;;21.49;23.89;101771.00;5005538;28;20041;-90
2022/11/26 07:38:48;;;;;;;11.52;8.02;;;;;;;21.95;23.31;101765.81;4997171;28;20371;-91
2022/11/26 07:41:16;;;;;;;11.70;8.10;;;;;;;22.61;22.57;101751.25;5019225;28;20169;-89
2022/11/26 07:43:42;;;;;;;10.60;7.88;;;;;;;22.87;21.76;101751.16;4979119;28;20426;-88
2022/11/26 07:46:16;;;;;;;10.57;7.43;;;;;;;23.04;21.42;101778.13;5026425;28;20494;-94
2022/11/26 07:48:46;;;;;;;15.10;8.63;;;;;;;23.45;21.69;101752.19;5001959;28;20421;-89
2022/11/26 07:51:20;;;;;;;12.10;8.00;;;;;;;23.76;21.05;101781.59;4989976;28;20045;-91
2022/11/26 07:53:46;;;;;;;10.20;7.60;;;;;;;24.56;20.39;101764.44;4996887;28;20069;-90
2022/11/26 07:56:13;;;;;;;11.10;7.90;;;;;;;24.76;19.92;101769.75;4994818;28;20073;-92
2022/11/26 07:58:42;;;;;;;12.23;8.00;;;;;;;24.05;20.74;101780.13;4992152;28;20026;-95
2022/11/26 08:01:12;;;;;;;12.15;8.80;;;;;;;24.90;19.40;101775.94;4976863;28;20079;-94
2022/11/26 08:03:41;;;;;;;15.18;9.00;;;;;;;25.70;19.33;101770.22;4996578;28;20080;-89
2022/11/26 08:06:11;;;;;;;15.27;9.43;;;;;;;26.61;18.34;101781.88;4995688;28;20038;-88
2022/11/26 08:08:37;;;;;;;14.65;8.88;;;;;;;26.66;18.12;101773.72;4995306;28;20430;-87
2022/11/26 08:11:04;;;;;;;15.43;9.43;;;;;;;26.57;17.82;101747.59;4981298;28;20042;-86
2022/11/26 08:13:29;;;;;;;12.55;8.23;;;;;;;27.09;19.65;101772.44;4997804;28;20114;-88
2022/11/26 08:15:56;;;;;;;13.90;9.10;;;;;;;27.78;19.63;101777.91;5001253;28;20106;-86
2022/11/26 08:18:22;;;;;;;14.13;9.90;;;;;;;28.47;17.15;101751.16;5012458;28;20049;-89
2022/11/26 08:20:55;;;;;;;9.55;7.80;;;;;;;25.79;19.16;101743.19;5014838;28;20058;-92
2022/11/26 08:23:21;;;;;;;14.27;8.88;;;;;;;27.10;18.33;101740.16;4996593;28;20161;-90
2022/11/26 08:25:47;;;;;;;10.52;8.60;;;;;;;27.76;17.38;101755.22;4976579;28;20487;-90
2022/11/26 08:28:13;;;;;;;13.38;8.50;;;;;;;27.51;18.37;101743.72;4988915;28;20081;-88
2022/11/26 08:30:39;;;;;;;12.65;8.85;;;;;;;28.74;17.62;101763.16;4995082;28;20026;-90
2022/11/26 08:33:11;;;;;;;17.25;8.98;;;;;;;29.77;15.80;101776.28;4970504;28;20112;-93
2022/11/26 08:35:38;;;;;;;10.63;8.57;;;;;;;28.91;16.14;101756.72;5002293;28;20041;-91
2022/11/26 08:38:04;;;;;;;11.52;8.52;;;;;;;27.86;16.59;101767.56;4990883;28;20046;-90
2022/11/26 08:40:31;;;;;;;11.45;8.88;;;;;;;27.40;17.15;101772.25;4989288;28;20073;-89
2022/11/26 08:43:00;;;;;;;10.98;9.27;;;;;;;26.38;17.81;101773.59;4992857;28;20069;-90
2022/11/26 08:45:28;;;;;;;12.25;9.25;;;;;;;27.88;16.93;101780.06;4998905;28;20034;-89
2022/11/26 08:47:54;;;;;;;14.55;9.13;;;;;;;27.67;16.99;101778.81;4999384;28;20120;-87
2022/11/26 08:50:19;;;;;;;12.10;8.73;;;;;;;27.11;17.17;101780.47;4999866;28;20116;-90
2022/11/26 08:52:45;;;;;;;13.50;9.18;;;;;;;28.23;16.98;101756.03;5000982;28;20054;-88
2022/11/26 08:55:10;;;;;;;13.40;8.55;;;;;;;27.87;16.95;101748.00;5018402;28;20030;-91
2022/11/26 08:57:37;;;;;;;14.77;9.90;;;;;;;27.72;17.20;101780.84;5012208;28;20034;-89
2022/11/26 09:00:04;;;;;;;15.73;9.57;;;;;;;27.34;17.37;101785.09;5002310;28;20121;-88
2022/11/26 09:02:32;;;;;;;14.98;9.55;;;;;;;28.31;16.93;101786.84;4993905;28;20041;-90
2022/11/26 09:05:00;;;;;;;14.57;11.10;;;;;;;29.56;15.72;101763.31;5003016;28;20030;-88
2022/11/26 09:07:27;;;;;;;13.07;9.77;;;;;;;30.08;15.32;101762.69;4997811;28;20058;-85
2022/11/26 09:09:52;;;;;;;11.75;8.60;;;;;;;29.93;15.01;101755.09;4998025;28;20034;-90
2022/11/26 09:12:19;;;;;;;10.60;7.97;;;;;;;30.14;15.20;101749.72;4990729;28;20030;-89
2022/11/26 09:14:47;;;;;;;10.50;7.75;;;;;;;28.74;16.11;101767.88;5009267;28;20049;-90
2022/11/26 09:17:12;;;;;;;10.80;7.90;;;;;;;29.70;15.07;101734.09;4998200;28;20050;-87
2022/11/26 09:19:44;;;;;;;12.75;8.25;;;;;;;29.46;15.48;101767.66;4998205;28;20076;-94
2022/11/26 09:22:17;;;;;;;11.13;8.18;;;;;;;29.82;15.11;101756.09;5005557;28;20046;-91
2022/11/26 09:24:47;;;;;;;13.23;8.85;;;;;;;30.39;14.64;101749.06;4997188;28;20034;-91
2022/11/26 09:27:34;;;;;;;10.82;8.50;;;;;;;28.82;15.38;101761.88;4992133;28;20054;-92
2022/11/26 09:30:03;;;;;;;11.50;8.70;;;;;;;29.70;15.37;101763.75;4998576;28;20033;-94
2022/11/26 09:32:36;;;;;;;13.65;8.40;;;;;;;30.66;14.46;101757.28;5019793;28;20046;-89
2022/11/26 09:35:07;;;;;;;8.73;7.18;;;;;;;31.93;13.20;101755.97;4994181;28;20046;-96
2022/11/26 09:37:41;;;;;;;8.15;6.50;;;;;;;32.06;12.22;101730.41;5007211;28;20038;-96
2022/11/26 09:40:32;;;;;;;9.63;6.47;;;;;;;32.53;12.44;101753.44;5083147;23;20085;-94
2022/11/26 09:43:15;;;;;;;9.82;7.05;;;;;;;32.40;12.35;101729.78;5015076;28;20046;-93
2022/11/26 09:45:52;;;;;;;11.68;7.32;;;;;;;31.88;13.17;101705.94;5009099;28;20025;-94
2022/11/26 09:48:48;;;;;;;14.77;7.70;;;;;;;30.66;14.03;101746.19;4983390;28;20068;-95
2022/11/26 09:51:16;;;;;;;10.25;8.45;;;;;;;30.76;14.20;101718.44;5004191;28;20030;-93
2022/11/26 09:53:49;;;;;;;13.43;8.40;;;;;;;31.00;13.87;101705.00;5015507;28;20042;-93
2022/11/26 09:56:48;;;;;;;11.18;8.27;;;;;;;31.78;13.25;101717.06;5017122;28;20078;-95
2022/11/26 09:59:19;;;;;;;13.85;8.07;;;;;;;31.66;13.20;101712.63;4991653;28;20102;-87
2022/11/26 10:01:46;;;;;;;18.20;8.70;;;;;;;31.61;13.22;101709.84;4996724;28;20041;-93
2022/11/26 10:04:39;;;;;;;9.13;7.82;;;;;;;30.63;13.82;101705.09;4998703;28;20473;-90
2022/11/26 10:07:27;;;;;;;14.82;7.70;;;;;;;31.27;13.73;101746.44;5002152;28;20435;-87
2022/11/26 10:10:20;;;;;;;9.05;7.35;;;;;;;29.83;14.69;101728.13;4999458;28;20030;-89
2022/11/26 10:13:05;;;;;;;10.05;7.57;;;;;;;29.31;15.32;101741.72;4994491;28;20062;-93
2022/11/26 10:15:36;;;;;;;11.85;7.57;;;;;;;30.19;14.69;101702.59;5004143;28;20034;-94
2022/11/26 10:18:08;;;;;;;11.15;7.35;;;;;;;30.90;13.63;101735.47;4989213;28;20415;-89
2022/11/26 10:20:54;;;;;;;10.00;7.70;;;;;;;28.99;15.17;101717.53;4997295;28;20127;-90
2022/11/26 10:23:39;;;;;;;9.27;7.13;;;;;;;30.44;14.27;101721.38;5008051;28;20026;-89
2022/11/26 10:26:15;;;;;;;9.05;6.85;;;;;;;30.33;13.80;101708.53;4992543;28;20045;-90
2022/11/26 10:28:51;;;;;;;8.85;5.50;;;;;;;30.60;12.81;101728.69;5018947;28;20109;-91
2022/11/26 10:31:32;;;;;;;6.78;5.47;;;;;;;31.17;12.97;101726.13;5012384;28;20042;-91
2022/11/26 10:34:08;;;;;;;7.03;5.45;;;;;;;31.46;12.70;101720.94;4995228;28;20038;-92
2022/11/26 10:36:41;;;;;;;12.15;8.35;;;;;;;30.83;13.39;101716.25;4993060;28;20522;-92
2022/11/26 10:39:17;;;;;;;9.15;6.15;;;;;;;30.28;13.58;101717.66;4980481;28;20117;-89
2022/11/26 10:41:47;;;;;;;8.40;6.50;;;;;;;30.48;13.47;101734.44;5017598;28;20070;-94
2022/11/26 10:44:42;;;;;;;8.05;6.63;;;;;;;29.93;13.69;101721.81;5017141;28;20053;-92
2022/11/26 10:47:23;;;;;;;9.00;6.22;;;;;;;29.49;14.31;101726.69;5001820;28;20029;-96
2022/11/26 10:49:50;;;;;;;8.77;5.82;;;;;;;29.31;14.40;101736.19;5018743;28;20378;-91
2022/11/26 10:52:19;;;;;;;9.82;6.85;;;;;;;29.34;14.26;101713.53;5019243;28;20064;-90
2022/11/26 10:54:46;;;;;;;8.60;7.00;;;;;;;28.02;15.76;101718.94;4998414;28;20124;-91
2022/11/26 10:57:15;;;;;;;9.75;6.90;;;;;;;27.71;16.46;101730.28;5029586;28;20108;-89
2022/11/26 10:59:54;;;;;;;10.35;7.07;;;;;;;28.19;15.59;101703.19;5031334;28;20050;-88
2022/11/26 11:02:48;;;;;;;9.30;6.20;;;;;;;27.36;16.05;101723.03;5006291;28;20065;-90
2022/11/26 11:05:35;;;;;;;8.27;6.03;;;;;;;27.40;15.79;101722.56;5008815;28;20037;-89
2022/11/26 11:08:09;;;;;;;8.18;6.32;;;;;;;25.78;17.03;101701.03;5019770;28;20032;-85
2022/11/26 11:11:10;;;;;;;9.35;7.13;;;;;;;23.37;19.87;101712.97;5005093;28;20053;-88
2022/11/26 11:14:07;;;;;;;11.00;6.63;;;;;;;24.46;18.86;101753.94;5018839;28;20045;-90
2022/11/26 11:16:42;;;;;;;8.48;6.10;;;;;;;23.30;20.21;101755.25;5009642;28;20033;-87
2022/11/26 11:19:39;;;;;;;;;;;;;;;;;;;;;
2022/11/26 11:22:30;;;;;;;6.22;4.72;;;;;;;19.04;24.04;101764.41;5019459;28;20439;-88
2022/11/26 11:28:58;;;;;;;9.27;4.40;;;;;;;18.68;24.33;101706.06;4984786;28;20057;-93
2022/11/26 11:31:25;;;;;;;8.88;5.40;;;;;;;17.87;26.12;101705.88;4941213;28;20051;-87
2022/11/26 11:34:11;;;;;;;8.43;5.13;;;;;;;17.31;26.84;101751.47;4931274;28;20041;-89
2022/11/26 11:36:37;;;;;;;7.57;5.30;;;;;;;16.75;28.15;101767.81;4944982;28;20109;-86
2022/11/26 11:39:04;;;;;;;;;;;;;;;16.24;29.73;101767.25;4952335;28;20089;-88
2022/11/26 11:41:32;;;;;;;8.57;5.18;;;;;;;15.24;30.84;101767.31;4962782;28;19941;-92
2022/11/26 11:44:24;;;;;;;70.53;9.27;;;;;;;15.25;31.24;101752.75;4959037;28;20119;-92
2022/11/26 11:47:09;;;;;;;10.48;5.50;;;;;;;16.36;29.41;101759.59;4955605;28;20081;-93